EDT,Max TemperatureF,Mean TemperatureF,Min TemperatureF,Max Dew PointF,MeanDew PointF,Min DewpointF,Max Humidity, Mean Humidity, Min Humidity, Max Sea Level PressureIn, Mean Sea Level PressureIn, Min Sea Level PressureIn, Max VisibilityMiles, Mean VisibilityMiles, Min VisibilityMiles, Max Wind SpeedMPH, Mean Wind SpeedMPH, Max Gust SpeedMPH,PrecipitationIn, CloudCover, Events, WindDirDegrees
2013-7-1,75,72,68,72,69,66,100,93,88,30.13,30.04,29.98,10,7,1,16,10,21,0.11,7,,204
2013-7-2,77,72,66,72,70,64,100,92,83,30.21,30.17,30.12,10,8,2,18,11,24,0.00,6,,215
2013-7-3,82,73,64,72,68,63,100,88,70,30.23,30.20,30.17,10,8,1,21,10,26,0.03,2,,222
2013-7-4,84,76,68,75,70,66,100,86,70,30.22,30.17,30.12,10,9,3,18,12,24,0.05,0,,219
2013-7-5,87,78,69,75,71,68,100,82,66,30.18,30.13,30.06,10,10,8,21,12,26,0.07,0,,224
2013-7-6,89,79,69,75,72,68,100,80,62,30.09,30.04,29.98,10,10,9,14,9,18,0.08,1,,238
2013-7-7,89,80,71,72,69,64,94,73,49,30.02,29.99,29.93,10,10,10,12,8,,0.16,0,Thunderstorm,250
2013-7-8,84,75,66,72,69,64,100,88,62,30.07,29.98,29.93,10,7,1,15,9,,0.15,3,,165
2013-7-9,71,68,64,66,65,63,100,92,83,30.11,30.09,30.05,10,7,0,9,4,,0.05,7,,22
2013-7-10,80,73,66,75,70,64,100,91,74,30.09,29.96,29.84,10,8,1,17,7,24,0.04,6,,172
2013-7-11,75,72,69,72,70,68,100,93,83,29.92,29.85,29.81,10,6,2,15,10,21,0.15,3,Thunderstorm,217
2013-7-12,69,66,64,70,64,61,100,89,73,30.20,30.08,29.92,10,7,0,18,8,23,0.00,7,,57
2013-7-13,73,68,62,70,66,61,100,91,78,30.32,30.28,30.20,10,7,0,12,7,,0.01,8,,85
2013-7-14,84,75,66,73,71,66,100,87,66,30.31,30.27,30.21,10,7,0,14,4,,0.02,3,,229
2013-7-15,87,78,68,73,70,66,100,82,49,30.21,30.16,30.11,10,9,0,9,4,,0.08,1,,257
2013-7-16,82,76,69,72,68,64,100,78,58,30.18,30.13,30.09,10,10,6,13,7,,0.01,0,,335
2013-7-17,87,76,66,72,67,63,94,73,46,30.20,30.13,30.04,10,10,8,17,5,23,0.06,0,,173
2013-7-18,82,78,73,72,70,70,94,80,66,30.04,30.00,29.96,10,10,10,15,10,18,0.00,0,,205
2013-7-19,89,81,73,77,74,72,100,84,62,29.96,29.86,29.76,10,6,2,23,13,30,0.00,0,,209
2013-7-20,84,78,71,75,72,68,100,85,66,29.80,29.74,29.66,10,6,3,21,14,29,0.00,0,Thunderstorm,217
2013-7-21,78,73,68,72,66,61,94,79,61,30.01,29.93,29.80,10,10,5,16,6,20,0.01,2,,108
2013-7-22,80,71,62,68,66,63,100,84,61,30.02,29.98,29.90,10,9,2,13,6,,0.00,2,,104
2013-7-23,82,76,69,75,71,68,100,90,74,29.89,29.68,29.56,10,7,1,18,8,26,0.09,5,,185
2013-7-24,86,78,69,73,69,63,100,80,55,29.92,29.71,29.59,10,8,0,14,4,18,0.00,5,,282
2013-7-25,69,64,60,63,58,55,94,82,73,30.08,30.03,29.93,10,10,10,17,14,23,0.03,8,,35
2013-7-26,64,62,60,63,61,61,100,95,94,30.02,29.95,29.89,10,5,1,17,11,23,1.06,8,,347
2013-7-27,80,71,62,70,64,61,100,83,54,30.08,30.05,30.01,10,10,5,15,9,20,0.00,1,,220
2013-7-28,73,70,66,72,67,64,100,91,83,30.04,30.00,29.97,10,8,1,10,5,,0.12,7,Thunderstorm,178
2013-7-29,80,71,62,72,68,61,100,89,70,30.06,30.03,30.00,10,9,0,13,6,18,0.00,3,,193
2013-7-30,77,70,64,68,63,57,100,81,53,30.10,30.07,30.03,10,8,0,13,8,,0.00,3,,286
2013-7-31,77,70,64,64,62,59,94,77,57,30.14,30.10,30.07,10,10,10,9,6,,0.00,0,,294